sensor_id;sensor_type;location;lat;lon;timestamp;pressure;altitude;pressure_sealevel;temperature;humidity
48796;BME280;34607;48.520;-1.330;2023-12-04T08:42:34;97947.31;;;7.88;100.00
48796;BME280;34607;48.520;-1.330;2023-12-04T08:45:01;97951.59;;;7.91;100.00
48796;BME280;34607;48.520;-1.330;2023-12-04T08:47:31;97939.56;;;7.90;100.00
48796;BME280;34607;48.520;-1.330;2023-12-04T08:50:00;97936.13;;;7.89;100.00
48796;BME280;34607;48.520;-1.330;2023-12-04T08:52:27;97935.97;;;8.01;100.00
48796;BME280;34607;48.520;-1.330;2023-12-04T08:54:54;97924.81;;;8.04;100.00
48796;BME280;34607;48.520;-1.330;2023-12-04T08:57:21;97935.91;;;8.07;100.00
48796;BME280;34607;48.520;-1.330;2023-12-04T08:59:49;97928.19;;;8.09;100.00
48796;BME280;34607;48.520;-1.330;2023-12-04T09:02:16;97927.28;;;8.09;100.00
48796;BME280;34607;48.520;-1.330;2023-12-04T09:04:43;97929.00;;;8.11;100.00
48796;BME280;34607;48.520;-1.330;2023-12-04T09:07:11;97932.44;;;8.09;100.00
48796;BME280;34607;48.520;-1.330;2023-12-04T09:09:38;97932.38;;;8.15;100.00
48796;BME280;34607;48.520;-1.330;2023-12-04T09:12:05;97922.03;;;8.18;100.00
48796;BME280;34607;48.520;-1.330;2023-12-04T09:14:34;97930.56;;;8.23;100.00
48796;BME280;34607;48.520;-1.330;2023-12-04T09:17:03;97926.25;;;8.23;100.00
48796;BME280;34607;48.520;-1.330;2023-12-04T09:19:30;97919.44;;;8.19;100.00
48796;BME280;34607;48.520;-1.330;2023-12-04T09:21:57;97923.66;;;8.25;100.00
48796;BME280;34607;48.520;-1.330;2023-12-04T09:24:24;97921.94;;;8.24;100.00
48796;BME280;34607;48.520;-1.330;2023-12-04T09:26:53;97917.53;;;8.32;100.00
48796;BME280;34607;48.520;-1.330;2023-12-04T09:29:20;97929.63;;;8.27;100.00
48796;BME280;34607;48.520;-1.330;2023-12-04T09:31:50;97920.22;;;8.26;100.00
48796;BME280;34607;48.520;-1.330;2023-12-04T09:34:19;97933.00;;;8.34;100.00
48796;BME280;34607;48.520;-1.330;2023-12-04T09:36:48;97926.03;;;8.39;100.00
48796;BME280;34607;48.520;-1.330;2023-12-04T09:39:15;97935.47;;;8.41;100.00
48796;BME280;34607;48.520;-1.330;2023-12-04T09:41:43;97916.59;;;8.38;100.00
48796;BME280;34607;48.520;-1.330;2023-12-04T09:44:11;97926.81;;;8.47;100.00
48796;BME280;34607;48.520;-1.330;2023-12-04T09:46:38;97926.78;;;8.50;100.00
48796;BME280;34607;48.520;-1.330;2023-12-04T09:49:05;97929.28;;;8.53;100.00
48796;BME280;34607;48.520;-1.330;2023-12-04T09:51:34;97940.41;;;8.58;100.00
48796;BME280;34607;48.520;-1.330;2023-12-04T09:54:03;97934.34;;;8.61;100.00
48796;BME280;34607;48.520;-1.330;2023-12-04T09:56:32;97933.44;;;8.65;100.00
48796;BME280;34607;48.520;-1.330;2023-12-04T09:59:00;97939.47;;;8.66;100.00
48796;BME280;34607;48.520;-1.330;2023-12-04T10:01:29;97934.31;;;8.64;100.00
48796;BME280;34607;48.520;-1.330;2023-12-04T10:03:57;97938.59;;;8.65;100.00
48796;BME280;34607;48.520;-1.330;2023-12-04T10:06:26;97942.03;;;8.67;100.00
48796;BME280;34607;48.520;-1.330;2023-12-04T10:08:56;97935.94;;;8.70;100.00
48796;BME280;34607;48.520;-1.330;2023-12-04T10:11:24;97941.06;;;8.73;100.00
48796;BME280;34607;48.520;-1.330;2023-12-04T10:13:53;97942.72;;;8.77;100.00
48796;BME280;34607;48.520;-1.330;2023-12-04T10:16:33;97946.09;;;8.80;100.00
48796;BME280;34607;48.520;-1.330;2023-12-04T10:19:25;97917.09;;;8.65;100.00
48796;BME280;34607;48.520;-1.330;2023-12-04T10:21:54;97945.97;;;8.90;100.00
48796;BME280;34607;48.520;-1.330;2023-12-04T10:24:30;97953.59;;;8.96;100.00
48796;BME280;34607;48.520;-1.330;2023-12-04T10:26:58;97950.09;;;9.02;100.00
48796;BME280;34607;48.520;-1.330;2023-12-04T10:29:27;97943.97;;;9.07;100.00
48796;BME280;34607;48.520;-1.330;2023-12-04T10:31:58;97952.34;;;9.20;100.00
48796;BME280;34607;48.520;-1.330;2023-12-04T10:34:26;97955.66;;;9.27;100.00
48796;BME280;34607;48.520;-1.330;2023-12-04T10:36:53;97954.75;;;9.31;100.00
48796;BME280;34607;48.520;-1.330;2023-12-04T10:39:20;97953.84;;;9.33;100.00
48796;BME280;34607;48.520;-1.330;2023-12-04T10:41:59;97915.50;;;9.12;100.00
48796;BME280;34607;48.520;-1.330;2023-12-04T10:44:28;97958.84;;;9.44;100.00
48796;BME280;34607;48.520;-1.330;2023-12-04T10:46:56;97933.97;;;9.37;100.00
48796;BME280;34607;48.520;-1.330;2023-12-04T10:49:26;97955.72;;;9.73;100.00
48796;BME280;34607;48.520;-1.330;2023-12-04T10:51:55;97957.09;;;9.90;100.00
48796;BME280;34607;48.520;-1.330;2023-12-04T10:54:23;97954.38;;;9.98;100.00
48796;BME280;34607;48.520;-1.330;2023-12-04T10:56:52;97955.13;;;10.04;100.00
48796;BME280;34607;48.520;-1.330;2023-12-04T10:59:26;97956.78;;;10.07;100.00
48796;BME280;34607;48.520;-1.330;2023-12-04T11:01:55;97961.84;;;10.13;100.00
48796;BME280;34607;48.520;-1.330;2023-12-04T11:04:25;97959.97;;;10.20;100.00
48796;BME280;34607;48.520;-1.330;2023-12-04T11:06:54;97959.94;;;10.21;100.00
48796;BME280;34607;48.520;-1.330;2023-12-04T11:09:21;97971.28;;;10.14;100.00
48796;BME280;34607;48.520;-1.330;2023-12-04T11:11:55;97964.31;;;10.18;100.00
48796;BME280;34607;48.520;-1.330;2023-12-04T11:14:27;97960.97;;;10.12;100.00
48796;BME280;34607;48.520;-1.330;2023-12-04T11:16:59;97962.16;;;9.96;100.00
48796;BME280;34607;48.520;-1.330;2023-12-04T11:19:30;97960.19;;;10.07;100.00
48796;BME280;34607;48.520;-1.330;2023-12-04T11:21:59;97962.69;;;10.13;100.00
48796;BME280;34607;48.520;-1.330;2023-12-04T11:24:27;97967.84;;;10.13;100.00
48796;BME280;34607;48.520;-1.330;2023-12-04T11:26:55;97954.03;;;10.16;100.00
48796;BME280;34607;48.520;-1.330;2023-12-04T11:29:25;97957.44;;;10.17;100.00
48796;BME280;34607;48.520;-1.330;2023-12-04T11:31:52;97963.47;;;10.17;100.00
48796;BME280;34607;48.520;-1.330;2023-12-04T11:34:19;97965.22;;;10.15;100.00
48796;BME280;34607;48.520;-1.330;2023-12-04T11:36:46;97966.09;;;10.14;100.00
48796;BME280;34607;48.520;-1.330;2023-12-04T11:39:13;97971.28;;;10.14;100.00
48796;BME280;34607;48.520;-1.330;2023-12-04T11:41:41;97968.69;;;10.14;100.00
48796;BME280;34607;48.520;-1.330;2023-12-04T11:44:12;97966.09;;;10.14;100.00
48796;BME280;34607;48.520;-1.330;2023-12-04T11:46:55;97953.38;;;10.05;100.00
48796;BME280;34607;48.520;-1.330;2023-12-04T11:49:29;97966.84;;;10.19;100.00
48796;BME280;34607;48.520;-1.330;2023-12-04T11:51:57;97967.63;;;10.24;100.00
48796;BME280;34607;48.520;-1.330;2023-12-04T11:54:26;97972.69;;;10.29;100.00
48796;BME280;34607;48.520;-1.330;2023-12-04T11:57:00;97967.56;;;10.27;100.00
48796;BME280;34607;48.520;-1.330;2023-12-04T11:59:27;97966.75;;;10.25;100.00
48796;BME280;34607;48.520;-1.330;2023-12-04T12:01:56;97971.97;;;10.22;100.00
48796;BME280;34607;48.520;-1.330;2023-12-04T12:04:25;97971.13;;;10.22;100.00
48796;BME280;34607;48.520;-1.330;2023-12-04T12:06:53;97970.41;;;10.15;100.00
48796;BME280;34607;48.520;-1.330;2023-12-04T12:09:22;97976.38;;;10.17;100.00
48796;BME280;34607;48.520;-1.330;2023-12-04T12:11:49;97980.69;;;10.18;100.00
48796;BME280;34607;48.520;-1.330;2023-12-04T12:14:20;97947.56;;;9.93;100.00
48796;BME280;34607;48.520;-1.330;2023-12-04T12:16:47;97982.63;;;10.07;100.00
48796;BME280;34607;48.520;-1.330;2023-12-04T12:19:16;97982.69;;;10.04;100.00
48796;BME280;34607;48.520;-1.330;2023-12-04T12:21:44;97984.41;;;10.05;100.00
48796;BME280;34607;48.520;-1.330;2023-12-04T12:24:13;97983.56;;;10.04;100.00
48796;BME280;34607;48.520;-1.330;2023-12-04T12:26:40;97985.28;;;10.02;100.00
48796;BME280;34607;48.520;-1.330;2023-12-04T12:29:08;97991.22;;;10.07;100.00
48796;BME280;34607;48.520;-1.330;2023-12-04T12:31:36;97987.88;;;10.02;100.00
48796;BME280;34607;48.520;-1.330;2023-12-04T12:34:03;97994.69;;;10.08;100.00
48796;BME280;34607;48.520;-1.330;2023-12-04T12:36:32;97991.19;;;10.09;100.00
48796;BME280;34607;48.520;-1.330;2023-12-04T12:38:59;97995.53;;;10.08;100.00
48796;BME280;34607;48.520;-1.330;2023-12-04T12:41:29;97987.75;;;10.10;100.00
48796;BME280;34607;48.520;-1.330;2023-12-04T12:43:56;97994.69;;;10.08;100.00
48796;BME280;34607;48.520;-1.330;2023-12-04T12:46:23;98002.34;;;10.12;100.00
48796;BME280;34607;48.520;-1.330;2023-12-04T12:48:51;97985.28;;;10.02;100.00
48796;BME280;34607;48.520;-1.330;2023-12-04T12:51:18;98000.50;;;10.18;100.00
48796;BME280;34607;48.520;-1.330;2023-12-04T12:53:47;98000.63;;;10.13;100.00
48796;BME280;34607;48.520;-1.330;2023-12-04T12:56:14;98000.63;;;10.13;100.00
48796;BME280;34607;48.520;-1.330;2023-12-04T12:58:41;97998.88;;;10.13;100.00
48796;BME280;34607;48.520;-1.330;2023-12-04T13:01:09;97998.84;;;10.15;100.00
48796;BME280;34607;48.520;-1.330;2023-12-04T13:03:37;97997.91;;;10.19;100.00
48796;BME280;34607;48.520;-1.330;2023-12-04T13:06:04;98003.16;;;10.16;100.00
48796;BME280;34607;48.520;-1.330;2023-12-04T13:08:32;98009.13;;;10.20;100.00
48796;BME280;34607;48.520;-1.330;2023-12-04T13:11:00;97970.59;;;10.06;100.00
48796;BME280;34607;48.520;-1.330;2023-12-04T13:13:27;98008.25;;;10.19;100.00
48796;BME280;34607;48.520;-1.330;2023-12-04T13:15:55;98018.53;;;10.22;100.00
48796;BME280;34607;48.520;-1.330;2023-12-04T13:18:22;98009.94;;;10.22;100.00
48796;BME280;34607;48.520;-1.330;2023-12-04T13:20:49;98016.84;;;10.21;100.00
48796;BME280;34607;48.520;-1.330;2023-12-04T13:23:16;98019.44;;;10.21;100.00
48796;BME280;34607;48.520;-1.330;2023-12-04T13:25:43;98020.25;;;10.23;100.00
48796;BME280;34607;48.520;-1.330;2023-12-04T13:28:12;98022.81;;;10.25;100.00
48796;BME280;34607;48.520;-1.330;2023-12-04T13:30:40;98025.41;;;10.23;100.00
48796;BME280;34607;48.520;-1.330;2023-12-04T13:33:08;98024.59;;;10.21;100.00
48796;BME280;34607;48.520;-1.330;2023-12-04T13:35:35;98023.75;;;10.19;100.00
48796;BME280;34607;48.520;-1.330;2023-12-04T13:38:02;98017.75;;;10.19;100.00
48796;BME280;34607;48.520;-1.330;2023-12-04T13:40:33;98015.13;;;10.20;100.00
48796;BME280;34607;48.520;-1.330;2023-12-04T13:43:01;98016.94;;;10.17;100.00
48796;BME280;34607;48.520;-1.330;2023-12-04T13:45:47;98021.19;;;10.18;100.00
48796;BME280;34607;48.520;-1.330;2023-12-04T13:48:14;98026.47;;;10.13;100.00
48796;BME280;34607;48.520;-1.330;2023-12-04T13:50:43;98034.31;;;10.08;100.00
48796;BME280;34607;48.520;-1.330;2023-12-04T13:53:10;98037.94;;;10.00;100.00
48796;BME280;34607;48.520;-1.330;2023-12-04T13:55:40;98041.59;;;9.88;100.00
48796;BME280;34607;48.520;-1.330;2023-12-04T13:58:12;98046.91;;;9.80;100.00
48796;BME280;34607;48.520;-1.330;2023-12-04T14:01:03;98053.03;;;9.73;100.00
48796;BME280;34607;48.520;-1.330;2023-12-04T14:03:38;98047.19;;;9.63;100.00
48796;BME280;34607;48.520;-1.330;2023-12-04T14:06:06;98054.03;;;9.66;100.00
48796;BME280;34607;48.520;-1.330;2023-12-04T14:08:33;98057.44;;;9.68;100.00
48796;BME280;34607;48.520;-1.330;2023-12-04T14:11:00;98061.72;;;9.70;100.00
48796;BME280;34607;48.520;-1.330;2023-12-04T14:13:27;98051.34;;;9.73;100.00
48796;BME280;34607;48.520;-1.330;2023-12-04T14:15:54;98064.28;;;9.72;100.00
48796;BME280;34607;48.520;-1.330;2023-12-04T14:18:23;98071.13;;;9.74;100.00
48796;BME280;34607;48.520;-1.330;2023-12-04T14:20:51;98070.22;;;9.77;100.00
48796;BME280;34607;48.520;-1.330;2023-12-04T14:23:18;98076.25;;;9.76;100.00
48796;BME280;34607;48.520;-1.330;2023-12-04T14:25:46;98086.56;;;9.79;100.00
48796;BME280;34607;48.520;-1.330;2023-12-04T14:28:13;98086.50;;;9.82;100.00
48796;BME280;34607;48.520;-1.330;2023-12-04T14:30:40;98086.50;;;9.82;100.00
48796;BME280;34607;48.520;-1.330;2023-12-04T14:33:08;98070.31;;;9.71;100.00
48796;BME280;34607;48.520;-1.330;2023-12-04T14:35:36;98094.28;;;9.81;100.00
48796;BME280;34607;48.520;-1.330;2023-12-04T14:38:03;98096.78;;;9.85;100.00
48796;BME280;34607;48.520;-1.330;2023-12-04T14:40:31;98095.09;;;9.84;100.00
48796;BME280;34607;48.520;-1.330;2023-12-04T14:42:58;98071.25;;;9.67;100.00
48796;BME280;34607;48.520;-1.330;2023-12-04T14:45:25;98107.19;;;9.82;100.00
48796;BME280;34607;48.520;-1.330;2023-12-04T14:47:52;98109.03;;;9.74;100.00
48796;BME280;34607;48.520;-1.330;2023-12-04T14:50:22;98129.78;;;9.69;100.00
48796;BME280;34607;48.520;-1.330;2023-12-04T14:52:51;98126.34;;;9.69;100.00
48796;BME280;34607;48.520;-1.330;2023-12-04T14:55:21;98124.03;;;9.52;100.00
48796;BME280;34607;48.520;-1.330;2023-12-04T14:58:04;98134.34;;;9.53;100.00
48796;BME280;34607;48.520;-1.330;2023-12-04T15:00:57;98137.91;;;9.46;100.00
48796;BME280;34607;48.520;-1.330;2023-12-04T15:03:38;98153.44;;;9.43;100.00
48796;BME280;34607;48.520;-1.330;2023-12-04T15:06:19;98133.72;;;9.37;100.00
48796;BME280;34607;48.520;-1.330;2023-12-04T15:09:09;98144.91;;;9.38;100.00
48796;BME280;34607;48.520;-1.330;2023-12-04T15:11:49;98159.56;;;9.36;100.00
48796;BME280;34607;48.520;-1.330;2023-12-04T15:14:41;98151.81;;;9.36;100.00
48796;BME280;34607;48.520;-1.330;2023-12-04T15:17:15;98156.19;;;9.32;100.00
48796;BME280;34607;48.520;-1.330;2023-12-04T15:19:55;98166.50;;;9.34;100.00
48796;BME280;34607;48.520;-1.330;2023-12-04T15:22:45;98153.81;;;9.15;100.00
48796;BME280;34607;48.520;-1.330;2023-12-04T15:25:14;98188.88;;;9.32;100.00
48796;BME280;34607;48.520;-1.330;2023-12-04T15:27:40;98175.97;;;9.32;100.00
48796;BME280;34607;48.520;-1.330;2023-12-04T15:30:09;98195.81;;;9.30;100.00
48796;BME280;34607;48.520;-1.330;2023-12-04T15:32:35;98200.16;;;9.26;100.00
48796;BME280;34607;48.520;-1.330;2023-12-04T15:35:02;98198.50;;;9.22;100.00
48796;BME280;34607;48.520;-1.330;2023-12-04T15:37:29;98204.50;;;9.23;100.00
48796;BME280;34607;48.520;-1.330;2023-12-04T15:39:56;98214.03;;;9.19;100.00
48796;BME280;34607;48.520;-1.330;2023-12-04T15:42:25;98232.13;;;9.16;100.00
48796;BME280;34607;48.520;-1.330;2023-12-04T15:44:52;98225.47;;;8.98;100.00
48796;BME280;34607;48.520;-1.330;2023-12-04T15:47:19;98235.75;;;9.01;100.00
48796;BME280;34607;48.520;-1.330;2023-12-04T15:49:46;98240.06;;;8.99;100.00
48796;BME280;34607;48.520;-1.330;2023-12-04T15:52:13;98234.06;;;8.98;100.00
48796;BME280;34607;48.520;-1.330;2023-12-04T15:54:39;98245.25;;;8.99;100.00
48796;BME280;34607;48.520;-1.330;2023-12-04T15:57:06;98257.28;;;8.98;100.00
48796;BME280;34607;48.520;-1.330;2023-12-04T15:59:36;98257.31;;;8.97;100.00
48796;BME280;34607;48.520;-1.330;2023-12-04T16:02:03;98269.41;;;8.93;100.00
48796;BME280;34607;48.520;-1.330;2023-12-04T16:04:30;98268.59;;;8.87;100.00
48796;BME280;34607;48.520;-1.330;2023-12-04T16:06:57;98280.59;;;8.89;100.00
48796;BME280;34607;48.520;-1.330;2023-12-04T16:09:24;98284.94;;;8.89;100.00
48796;BME280;34607;48.520;-1.330;2023-12-04T16:11:51;98276.38;;;8.85;100.00
48796;BME280;34607;48.520;-1.330;2023-12-04T16:14:18;98284.13;;;8.84;100.00
48796;BME280;34607;48.520;-1.330;2023-12-04T16:16:46;98289.31;;;8.80;100.00
48796;BME280;34607;48.520;-1.330;2023-12-04T16:19:14;98297.97;;;8.73;100.00
48796;BME280;34607;48.520;-1.330;2023-12-04T16:21:41;98297.94;;;8.76;100.00
48796;BME280;34607;48.520;-1.330;2023-12-04T16:24:08;98301.38;;;8.78;100.00
48796;BME280;34607;48.520;-1.330;2023-12-04T16:26:36;98315.22;;;8.71;100.00
48796;BME280;34607;48.520;-1.330;2023-12-04T16:29:03;98315.19;;;8.74;100.00
48796;BME280;34607;48.520;-1.330;2023-12-04T16:31:30;98327.28;;;8.69;100.00
48796;BME280;34607;48.520;-1.330;2023-12-04T16:33:59;98328.94;;;8.73;100.00
48796;BME280;34607;48.520;-1.330;2023-12-04T16:36:26;98328.94;;;8.75;100.00
48796;BME280;34607;48.520;-1.330;2023-12-04T16:38:53;98343.56;;;8.74;100.00
48796;BME280;34607;48.520;-1.330;2023-12-04T16:41:20;98332.41;;;8.72;100.00
48796;BME280;34607;48.520;-1.330;2023-12-04T16:43:47;98352.25;;;8.67;100.00
48796;BME280;34607;48.520;-1.330;2023-12-04T16:46:14;98347.09;;;8.66;100.00
48796;BME280;34607;48.520;-1.330;2023-12-04T16:48:42;98356.56;;;8.62;100.00
48796;BME280;34607;48.520;-1.330;2023-12-04T16:51:11;98366.00;;;8.63;100.00
48796;BME280;34607;48.520;-1.330;2023-12-04T16:53:38;98368.59;;;8.65;100.00
48796;BME280;34607;48.520;-1.330;2023-12-04T16:56:11;98366.03;;;8.58;100.00
48796;BME280;34607;48.520;-1.330;2023-12-04T16:58:38;98384.16;;;8.55;100.00
48796;BME280;34607;48.520;-1.330;2023-12-04T17:01:06;98385.00;;;8.56;100.00
48796;BME280;34607;48.520;-1.330;2023-12-04T17:03:33;98392.72;;;8.59;100.00
48796;BME280;34607;48.520;-1.330;2023-12-04T17:06:00;98400.47;;;8.57;100.00
48796;BME280;34607;48.520;-1.330;2023-12-04T17:08:28;98397.00;;;8.58;100.00
48796;BME280;34607;48.520;-1.330;2023-12-04T17:10:55;98408.22;;;8.50;100.00
48796;BME280;34607;48.520;-1.330;2023-12-04T17:13:22;98414.22;;;8.56;100.00
48796;BME280;34607;48.520;-1.330;2023-12-04T17:15:51;98418.50;;;8.60;100.00
48796;BME280;34607;48.520;-1.330;2023-12-04T17:18:18;98426.25;;;8.57;100.00
48796;BME280;34607;48.520;-1.330;2023-12-04T17:20:45;98429.75;;;8.49;100.00
48796;BME280;34607;48.520;-1.330;2023-12-04T17:23:12;98436.59;;;8.53;100.00
48796;BME280;34607;48.520;-1.330;2023-12-04T17:25:40;98400.63;;;8.28;100.00
48796;BME280;34607;48.520;-1.330;2023-12-04T17:28:07;98438.34;;;8.49;100.00
48796;BME280;34607;48.520;-1.330;2023-12-04T17:30:34;98422.03;;;8.42;100.00
48796;BME280;34607;48.520;-1.330;2023-12-04T17:33:02;98442.59;;;8.55;100.00
48796;BME280;34607;48.520;-1.330;2023-12-04T17:35:30;98444.34;;;8.53;100.00
48796;BME280;34607;48.520;-1.330;2023-12-04T17:37:57;98452.09;;;8.48;100.00
48796;BME280;34607;48.520;-1.330;2023-12-04T17:40:24;98458.16;;;8.42;100.00
48796;BME280;34607;48.520;-1.330;2023-12-04T17:42:53;98471.03;;;8.39;100.00
48796;BME280;34607;48.520;-1.330;2023-12-04T17:45:20;98473.59;;;8.41;100.00
48796;BME280;34607;48.520;-1.330;2023-12-04T17:47:47;98478.78;;;8.44;100.00
48796;BME280;34607;48.520;-1.330;2023-12-04T17:50:14;98488.22;;;8.42;100.00
48796;BME280;34607;48.520;-1.330;2023-12-04T17:52:41;98489.94;;;8.41;100.00
48796;BME280;34607;48.520;-1.330;2023-12-04T17:55:08;98502.84;;;8.41;100.00
48796;BME280;34607;48.520;-1.330;2023-12-04T17:57:36;98502.00;;;8.36;100.00
48796;BME280;34607;48.520;-1.330;2023-12-04T18:00:06;98502.03;;;8.35;100.00
48796;BME280;34607;48.520;-1.330;2023-12-04T18:02:35;98514.03;;;8.33;100.00
48796;BME280;34607;48.520;-1.330;2023-12-04T18:05:02;98510.59;;;8.32;100.00
48796;BME280;34607;48.520;-1.330;2023-12-04T18:07:29;98516.66;;;8.31;100.00
48796;BME280;34607;48.520;-1.330;2023-12-04T18:09:56;98529.50;;;8.34;100.00
48796;BME280;34607;48.520;-1.330;2023-12-04T18:12:23;98536.44;;;8.24;100.00
48796;BME280;34607;48.520;-1.330;2023-12-04T18:14:50;98544.19;;;8.20;100.00
48796;BME280;34607;48.520;-1.330;2023-12-04T18:17:19;98547.63;;;8.17;100.00
48796;BME280;34607;48.520;-1.330;2023-12-04T18:19:46;98547.63;;;8.19;100.00
48796;BME280;34607;48.520;-1.330;2023-12-04T18:22:16;98547.66;;;8.13;100.00
48796;BME280;34607;48.520;-1.330;2023-12-04T18:24:43;98551.91;;;8.20;100.00
48796;BME280;34607;48.520;-1.330;2023-12-04T18:27:10;98551.88;;;8.29;100.00
48796;BME280;34607;48.520;-1.330;2023-12-04T18:29:38;98551.88;;;8.29;100.00
48796;BME280;34607;48.520;-1.330;2023-12-04T18:32:07;98561.34;;;8.33;100.00
48796;BME280;34607;48.520;-1.330;2023-12-04T18:34:36;98556.19;;;8.30;100.00
48796;BME280;34607;48.520;-1.330;2023-12-04T18:37:07;98559.59;;;8.31;100.00
48796;BME280;34607;48.520;-1.330;2023-12-04T18:39:39;98543.38;;;8.04;100.00
48796;BME280;34607;48.520;-1.330;2023-12-04T18:42:08;98574.22;;;8.29;100.00
48796;BME280;34607;48.520;-1.330;2023-12-04T18:44:36;98576.81;;;8.30;100.00
48796;BME280;34607;48.520;-1.330;2023-12-04T18:47:05;98580.25;;;8.31;100.00
48796;BME280;34607;48.520;-1.330;2023-12-04T18:49:37;98589.69;;;8.33;100.00
48796;BME280;34607;48.520;-1.330;2023-12-04T18:52:05;98600.91;;;8.14;100.00
48796;BME280;34607;48.520;-1.330;2023-12-04T18:54:33;98604.38;;;8.10;100.00
48796;BME280;34607;48.520;-1.330;2023-12-04T18:57:00;98606.06;;;8.15;100.00
48796;BME280;34607;48.520;-1.330;2023-12-04T18:59:27;98609.50;;;8.03;100.00
48796;BME280;34607;48.520;-1.330;2023-12-04T19:01:54;98613.81;;;8.03;100.00
48796;BME280;34607;48.520;-1.330;2023-12-04T19:04:21;98608.69;;;7.95;100.00
48796;BME280;34607;48.520;-1.330;2023-12-04T19:06:49;98618.13;;;8.02;100.00
48796;BME280;34607;48.520;-1.330;2023-12-04T19:09:16;98616.41;;;8.11;100.00
48796;BME280;34607;48.520;-1.330;2023-12-04T19:11:43;98616.38;;;8.17;100.00
48796;BME280;34607;48.520;-1.330;2023-12-04T19:14:10;98628.38;;;8.24;100.00
48796;BME280;34607;48.520;-1.330;2023-12-04T19:16:38;98630.97;;;8.29;100.00
48796;BME280;34607;48.520;-1.330;2023-12-04T19:19:06;98633.56;;;8.18;100.00
48796;BME280;34607;48.520;-1.330;2023-12-04T19:21:33;98640.47;;;8.16;100.00
48796;BME280;34607;48.520;-1.330;2023-12-04T19:24:02;98650.75;;;8.03;100.00
48796;BME280;34607;48.520;-1.330;2023-12-04T19:26:29;98659.34;;;8.09;100.00
48796;BME280;34607;48.520;-1.330;2023-12-04T19:28:56;98651.63;;;8.07;100.00
48796;BME280;34607;48.520;-1.330;2023-12-04T19:31:23;98654.22;;;8.05;100.00
48796;BME280;34607;48.520;-1.330;2023-12-04T19:33:50;98656.78;;;8.02;100.00
48796;BME280;34607;48.520;-1.330;2023-12-04T19:36:18;98666.25;;;8.00;100.00
48796;BME280;34607;48.520;-1.330;2023-12-04T19:38:45;98668.81;;;8.11;100.00
48796;BME280;34607;48.520;-1.330;2023-12-04T19:41:13;98663.69;;;8.00;100.00
48796;BME280;34607;48.520;-1.330;2023-12-04T19:43:40;98677.41;;;8.02;100.00
48796;BME280;34607;48.520;-1.330;2023-12-04T19:46:07;98686.00;;;7.98;100.00
48796;BME280;34607;48.520;-1.330;2023-12-04T19:48:34;98680.84;;;8.01;100.00
48796;BME280;34607;48.520;-1.330;2023-12-04T19:51:03;98682.56;;;8.02;100.00
48796;BME280;34607;48.520;-1.330;2023-12-04T19:53:30;98684.25;;;8.02;100.00
48796;BME280;34607;48.520;-1.330;2023-12-04T19:55:57;98694.59;;;7.99;100.00
48796;BME280;34607;48.520;-1.330;2023-12-04T19:58:26;98690.28;;;7.93;100.00
48796;BME280;34607;48.520;-1.330;2023-12-04T20:00:53;98698.91;;;7.92;100.00
48796;BME280;34607;48.520;-1.330;2023-12-04T20:03:20;98704.91;;;7.79;100.00
48796;BME280;34607;48.520;-1.330;2023-12-04T20:05:47;98686.00;;;7.64;100.00
48796;BME280;34607;48.520;-1.330;2023-12-04T20:08:14;98710.88;;;7.67;100.00
48796;BME280;34607;48.520;-1.330;2023-12-04T20:10:45;98715.19;;;7.65;100.00
48796;BME280;34607;48.520;-1.330;2023-12-04T20:13:12;98712.59;;;7.60;100.00
48796;BME280;34607;48.520;-1.330;2023-12-04T20:15:41;98716.91;;;7.71;100.00
48796;BME280;34607;48.520;-1.330;2023-12-04T20:18:08;98722.94;;;7.83;100.00
48796;BME280;34607;48.520;-1.330;2023-12-04T20:20:34;98714.34;;;7.92;100.00
48796;BME280;34607;48.520;-1.330;2023-12-04T20:23:01;98725.53;;;7.96;100.00
48796;BME280;34607;48.520;-1.330;2023-12-04T20:25:28;98726.38;;;7.99;100.00
48796;BME280;34607;48.520;-1.330;2023-12-04T20:27:55;98734.13;;;7.99;100.00
48796;BME280;34607;48.520;-1.330;2023-12-04T20:30:22;98732.38;;;7.98;100.00
48796;BME280;34607;48.520;-1.330;2023-12-04T20:32:52;98736.69;;;7.95;100.00
48796;BME280;34607;48.520;-1.330;2023-12-04T20:35:19;98742.69;;;7.98;100.00
48796;BME280;34607;48.520;-1.330;2023-12-04T20:37:46;98745.28;;;7.95;100.00
48796;BME280;34607;48.520;-1.330;2023-12-04T20:40:13;98756.44;;;7.94;100.00
48796;BME280;34607;48.520;-1.330;2023-12-04T20:42:40;98754.72;;;7.87;100.00
48796;BME280;34607;48.520;-1.330;2023-12-04T20:45:08;98769.31;;;7.88;100.00
48796;BME280;34607;48.520;-1.330;2023-12-04T20:47:36;98764.16;;;7.90;100.00
48796;BME280;34607;48.520;-1.330;2023-12-04T20:50:06;98784.75;;;7.76;100.00
48796;BME280;34607;48.520;-1.330;2023-12-04T20:52:35;98771.03;;;7.80;100.00
48796;BME280;34607;48.520;-1.330;2023-12-04T20:55:02;98784.75;;;7.73;100.00
48796;BME280;34607;48.520;-1.330;2023-12-04T20:57:29;98779.59;;;7.63;100.00
48796;BME280;34607;48.520;-1.330;2023-12-04T20:59:56;98774.47;;;7.69;100.00
48796;BME280;34607;48.520;-1.330;2023-12-04T21:02:23;98799.31;;;7.67;100.00
48796;BME280;34607;48.520;-1.330;2023-12-04T21:04:50;98789.00;;;7.55;100.00
48796;BME280;34607;48.520;-1.330;2023-12-04T21:07:19;98806.13;;;7.39;100.00
48796;BME280;34607;48.520;-1.330;2023-12-04T21:09:46;98798.44;;;7.45;100.00
48796;BME280;34607;48.520;-1.330;2023-12-04T21:12:13;98795.84;;;7.45;100.00
48796;BME280;34607;48.520;-1.330;2023-12-04T21:14:40;98796.72;;;7.55;100.00
48796;BME280;34607;48.520;-1.330;2023-12-04T21:17:07;98822.53;;;7.71;100.00
48796;BME280;34607;48.520;-1.330;2023-12-04T21:19:35;98823.41;;;7.74;100.00
48796;BME280;34607;48.520;-1.330;2023-12-04T21:22:02;98829.41;;;7.78;100.00
48796;BME280;34607;48.520;-1.330;2023-12-04T21:24:31;98833.75;;;7.82;100.00
48796;BME280;34607;48.520;-1.330;2023-12-04T21:26:58;98834.59;;;7.84;100.00
48796;BME280;34607;48.520;-1.330;2023-12-04T21:29:25;98847.50;;;7.88;100.00
48796;BME280;34607;48.520;-1.330;2023-12-04T21:31:52;98856.94;;;7.88;100.00
48796;BME280;34607;48.520;-1.330;2023-12-04T21:34:19;98861.25;;;7.89;100.00
48796;BME280;34607;48.520;-1.330;2023-12-04T21:36:46;98851.78;;;7.83;100.00